This is the latest recevied weather packets stored in our database for station/object CA3EAP-13. If no packets are shown the sender has not sent any weather packets the latest 10 day(s).
| Time | Temp. | Humidity | Pressure | Rain* | Wind** | Luminosity | Snow |
|---|---|---|---|---|---|---|---|
| 1777588504 | 20° C | 60% | 1011 hPa | - | - | - | - |
| 1777587904 | 20° C | 60% | 1010.8 hPa | - | - | - | - |
| 1777587304 | 20.56° C | 59% | 1010.7 hPa | - | - | - | - |
| 1777586704 | 20.56° C | 58% | 1010.4 hPa | - | - | - | - |
| 1777586104 | 21.11° C | 56% | 1010.2 hPa | - | - | - | - |
| 1777585504 | 21.67° C | 56% | 1010 hPa | - | - | - | - |
| 1777584904 | 21.67° C | 55% | 1009.9 hPa | - | - | - | - |
| 1777584304 | 21.67° C | 53% | 1009.7 hPa | - | - | - | - |
| 1777583704 | 22.78° C | 50% | 1009.2 hPa | - | - | - | - |
| 1777583104 | 22.78° C | 50% | 1009.1 hPa | - | - | - | - |
| 1777582504 | 22.78° C | 49% | 1009 hPa | - | - | - | - |
| 1777581904 | 22.78° C | 49% | 1008.8 hPa | - | - | - | - |
| 1777581304 | 23.33° C | 49% | 1008.7 hPa | - | - | - | - |
| 1777580704 | 23.33° C | 48% | 1008.6 hPa | - | - | - | - |
| 1777580104 | 23.89° C | 48% | 1008.4 hPa | - | - | - | - |
| 1777579504 | 23.33° C | 49% | 1008.6 hPa | - | - | - | - |
| 1777578904 | 23.33° C | 48% | 1008.4 hPa | - | - | - | - |
| 1777578305 | 23.89° C | 45% | 1008.3 hPa | - | - | - | - |
| 1777577704 | 23.89° C | 43% | 1008.1 hPa | - | - | - | - |
| 1777577104 | 23.89° C | 43% | 1008.1 hPa | - | - | - | - |
| 1777576504 | 24.44° C | 42% | 1008.1 hPa | - | - | - | - |
| 1777575904 | 24.44° C | 42% | 1008 hPa | - | - | - | - |
| 1777575304 | 24.44° C | 41% | 1007.9 hPa | - | - | - | - |
| 1777574704 | 24.44° C | 42% | 1008 hPa | - | - | - | - |
| 1777574104 | 24.44° C | 41% | 1008.1 hPa | - | - | - | - |
* Rain since midnight (hover to see other rain measurements)
** Current wind speed in m/s (hover to see current wind gust speed)